100 Mile House, British Columbia

4:52 AM PDT on August 21, 2014 (GMT -0700)
108 Ranch | Change Station
CLOSE
Current Station
Personal Weather Station
Location: 108 Mile Ranch, BRITISH COLUMBIA
Elevation: 3077 ft
Nearby Weather Stations

Elev 3077 ft 51.74 °N, 121.37 °W | Updated 10 minutes ago

Clear
Clear
41.0 °F
Feels Like 41 °F
N
0.0
Wind Variable Wind from East

Today
High -- | Low -- °F
--% Chance of Precip.
Yesterday
High -- | Low -- °F
Precip. -- in
6:00 AM 8:15 PM
Waning Crescent, 15% visible
Pressure 30.01 in
Visibility 9.0 miles
Clouds Clear
Windchill 41 °F
Dew Point 40 °F
Humidity 98%
Rainfall 0.00 in
Snow Depth Not available.
UV 0 out of 12
Pollen Not available.
Air Quality Not available.
Flu Activity Not available.
METAR CYIN 211100Z AUTO VRB02KT 9SM CLR 02/01 A3001 RMK SLP163

More Conditions Fewer Conditions

Pressure 30.01 in
Visibility 9.0 miles
Clouds Clear
Windchill 41 °F
Dew Point 40 °F
Humidity 98%
Rainfall 0.00 in
Snow Depth Not available.
UV 0 out of 12
Pollen Not available.
Air Quality Not available.
Flu Activity Not available.
METAR CYIN 211100Z AUTO VRB02KT 9SM CLR 02/01 A3001 RMK SLP163

More Conditions Fewer Conditions

10-Day Weather Forecast

Almanac

Astronomy

Aug. 21, 2014 Rise Set
Actual Time 6:00 AM PDT 8:15 PM PDT
Civil Twilight 5:23 AM PDT 8:52 PM PDT
Nautical Twilight 4:37 AM PDT 9:38 PM PDT
Astronomical Twilight 3:43 AM PDT 10:31 PM PDT
Moon 2:23 AM PDT 5:58 PM PDT
Length of Visible Light 15h 28m
Length of Day
14h 15m
Tomorrow will be 3m 43s shorter.
Waning Crescent, 15% of the Moon is Illuminated
Today
Waning Crescent
Aug 25
New
Sep 2
First Quarter
Sep 8
Full
Sep 15
Last Quarter

Yesterday's Extremes

Country Highs Country Lows

Community

WunderPhotos

Upload Photos

1,745,864 photos uploaded!

Nearby

Snow Depth

Not available.

Earthquake Activity

City Distance Mag. Time & Date
No recent earthquake activity has been reported nearby.
Minimum magnitude displayed is 2.5.

Coastal Water Temperatures

Place Temperature
No Stations Reporting

Nearby Weather Stations